Time;durP1;ratioP1;P1;durP2;ratioP2;P2;SDS_P1;SDS_P2;PMS_P1;PMS_P2;Temp;Humidity;BMP_temperature;BMP_pressure;BME280_temperature;BME280_humidity;BME280_pressure;Samples;Min_cycle;Max_cycle;Signal;HPM_P1;HPM_P2
2024/02/02 10:36:33;;;;;;;7.17;4.17;;;;;;;8.01;96.21;100279.91;5130593;27;39106;-84
2024/02/02 10:39:17;;;;;;;8.63;4.27;;;;;;;8.62;91.04;100293.91;5132479;27;41380;-84
2024/02/02 10:42:04;;;;;;;8.50;3.83;;;;;;;9.16;87.44;100290.34;5131810;27;42918;-84
2024/02/02 10:44:46;;;;;;;6.10;3.77;;;;;;;9.56;84.09;100290.69;5132246;27;43560;-84
2024/02/02 10:47:27;;;;;;;4.87;3.53;;;;;;;9.88;81.32;100275.47;5149775;27;38978;-85
2024/02/02 10:50:07;;;;;;;8.70;3.67;;;;;;;10.22;79.13;100291.81;5131652;27;41175;-87
2024/02/02 10:53:00;;;;;;;5.30;4.10;;;;;;;10.48;77.79;100292.59;5131666;27;41735;-85
2024/02/02 11:05:01;;;;;;;6.97;3.97;;;;;;;10.76;73.12;100270.22;5155754;27;41921;-86
2024/02/02 11:07:55;;;;;;;8.53;3.93;;;;;;;10.89;71.03;100275.88;5117631;27;42284;-84
2024/02/02 11:10:31;;;;;;;6.90;3.77;;;;;;;10.91;70.28;100278.47;5137697;27;40035;-83
2024/02/02 11:13:17;;;;;;;6.37;3.70;;;;;;;10.82;69.60;100266.47;5139141;27;41332;-90
2024/02/02 11:15:52;;;;;;;5.63;3.57;;;;;;;10.91;68.77;100276.69;5155879;27;41992;-86
2024/02/02 11:18:39;;;;;;;5.43;4.03;;;;;;;10.84;68.53;100256.69;5156077;27;41350;-79
2024/02/02 11:21:22;;;;;;;8.03;4.00;;;;;;;10.90;67.99;100251.13;5154646;27;39685;-83
2024/02/02 11:24:02;;;;;;;6.53;3.73;;;;;;;10.99;68.20;100248.09;5171775;27;42051;-82
2024/02/02 11:26:38;;;;;;;6.83;3.87;;;;;;;11.26;67.81;100261.09;5154789;27;42744;-83
2024/02/02 11:29:15;;;;;;;6.33;3.90;;;;;;;11.12;67.60;100204.22;5155464;27;43274;-83
2024/02/02 11:31:52;;;;;;;7.53;4.37;;;;;;;11.57;66.11;100252.66;5153150;27;40815;-84
2024/02/02 11:34:30;;;;;;;5.47;3.40;;;;;;;11.53;65.01;100238.66;5175976;27;42414;-84
2024/02/02 11:37:08;;;;;;;6.17;3.70;;;;;;;11.70;64.77;100241.44;5176004;27;41663;-83
2024/02/02 11:39:57;;;;;;;4.83;3.90;;;;;;;11.94;65.16;100250.13;5176495;27;42605;-82
2024/02/02 11:42:26;;;;;;;7.37;3.63;;;;;;;12.07;63.52;100247.75;5172468;27;41254;-82
2024/02/02 11:44:57;;;;;;;7.37;3.70;;;;;;;12.11;63.31;100207.72;5162015;27;42505;-81
2024/02/02 11:47:24;;;;;;;5.20;3.70;;;;;;;12.61;62.34;100238.94;5148138;27;41796;-83
2024/02/02 11:50:16;;;;;;;9.17;3.87;;;;;;;12.85;60.55;100240.41;5138438;27;40915;-86
2024/02/02 11:52:54;;;;;;;5.47;3.30;;;;;;;12.79;59.30;100210.59;5131099;27;39297;-84
2024/02/02 11:56:06;;;;;;;8.07;3.40;;;;;;;13.22;59.02;100236.78;5141064;27;41162;-84
2024/02/02 11:58:40;;;;;;;6.83;3.63;;;;;;;13.58;58.57;100234.00;5137377;27;42654;-84
2024/02/02 12:01:38;;;;;;;5.83;3.53;;;;;;;14.23;57.42;100228.69;5141175;27;44536;-86
2024/02/02 12:04:36;;;;;;;6.73;3.60;;;;;;;14.57;55.65;100212.56;5139950;27;39328;-84
2024/02/02 12:07:26;;;;;;;4.23;2.80;;;;;;;14.81;53.57;100220.09;5140795;27;40946;-86
2024/02/02 12:13:21;;;;;;;4.03;2.90;;;;;;;14.95;51.34;100218.34;5139575;27;41303;-85
2024/02/02 12:15:52;;;;;;;7.10;2.80;;;;;;;14.99;51.62;100224.34;5140371;27;39113;-87
2024/02/02 12:18:22;;;;;;;3.93;2.77;;;;;;;15.49;51.60;100212.44;5140766;27;41085;-85
2024/02/02 12:20:59;;;;;;;4.93;2.80;;;;;;;15.81;50.45;100163.28;5157966;27;42166;-85
2024/02/02 12:23:27;;;;;;;5.47;3.00;;;;;;;17.36;46.92;100235.94;5123115;27;43644;-84
2024/02/02 12:25:55;;;;;;;2.87;2.37;;;;;;;18.57;44.98;100233.56;5140438;27;40519;-84
2024/02/02 12:28:24;;;;;;;6.03;3.00;;;;;;;19.70;42.43;100260.81;5139886;27;41120;-89
2024/02/02 12:31:12;;;;;;;5.00;2.70;;;;;;;20.64;39.72;100247.03;5137390;27;42218;-88
2024/02/02 12:36:22;;;;;;;4.00;2.50;;;;;;;21.13;37.69;100255.44;5178224;27;39061;-86
2024/02/02 12:39:31;;;;;;;4.73;2.23;;;;;;;21.28;38.54;100238.97;5161233;27;43349;-86
2024/02/02 12:42:39;;;;;;;5.20;2.53;;;;;;;21.38;36.95;100253.38;5160869;27;44467;-86
2024/02/02 12:45:12;;;;;;;4.03;2.17;;;;;;;21.33;37.34;100261.00;5150682;27;41343;-85
2024/02/02 12:47:41;;;;;;;2.97;2.10;;;;;;;21.62;36.25;100256.69;5160309;27;38763;-86
2024/02/02 12:50:17;;;;;;;4.43;2.27;;;;;;;21.79;36.85;100247.97;5160401;27;41798;-85
2024/02/02 12:52:46;;;;;;;3.40;2.03;;;;;;;21.54;36.29;100259.16;5160631;27;44344;-84
2024/02/02 12:55:14;;;;;;;3.90;1.97;;;;;;;20.83;36.23;100211.34;5097450;27;43806;-84
2024/02/02 12:58:02;;;;;;;4.73;2.40;;;;;;;20.30;36.73;100200.41;5101494;27;41520;-85
2024/02/02 13:00:31;;;;;;;2.70;2.00;;;;;;;20.19;37.34;100213.88;5098138;27;43897;-83
2024/02/02 13:03:03;;;;;;;5.03;2.30;;;;;;;19.86;37.66;100191.44;5098872;27;42149;-83
2024/02/02 13:05:30;;;;;;;5.93;2.40;;;;;;;20.02;37.82;100224.19;5094949;28;42755;-82
2024/02/02 13:08:05;;;;;;;5.00;2.13;;;;;;;19.58;37.87;100190.06;5078524;28;38888;-85
2024/02/02 13:13:23;;;;;;;2.23;2.00;;;;;;;19.17;36.83;100211.16;5098217;27;43083;-82
2024/02/02 13:16:28;;;;;;;3.67;1.60;;;;;;;18.69;37.39;100205.84;5115577;27;41423;-84
2024/02/02 13:18:57;;;;;;;2.70;2.00;;;;;;;18.33;37.31;100190.63;5098219;27;42374;-88
2024/02/02 13:21:28;;;;;;;2.17;1.50;;;;;;;18.17;37.34;100201.63;5078276;27;40912;-84
2024/02/02 13:23:58;;;;;;;3.10;1.90;;;;;;;17.64;38.42;100159.91;5098469;27;42968;-86
2024/02/02 13:27:03;;;;;;;4.13;1.60;;;;;;;17.73;37.92;100201.25;5080669;27;41160;-83
2024/02/02 13:29:35;;;;;;;5.00;1.77;;;;;;;17.57;38.78;100193.41;5098477;27;39883;-85
2024/02/02 13:32:15;;;;;;;4.23;1.60;;;;;;;17.25;39.48;100158.16;5077860;28;41490;-86
2024/02/02 13:34:43;;;;;;;5.30;1.80;;;;;;;17.16;39.54;100180.22;5092130;28;43064;-84
2024/02/02 13:37:24;;;;;;;3.70;1.60;;;;;;;17.07;39.98;100187.03;5094595;28;41240;-81
2024/02/02 13:39:54;;;;;;;3.07;1.67;;;;;;;16.96;40.24;100178.03;5078288;28;38839;-83
2024/02/02 13:42:22;;;;;;;4.07;1.70;;;;;;;16.75;40.20;100157.13;5077674;28;43295;-84
2024/02/02 13:45:16;;;;;;;3.67;1.97;;;;;;;16.61;40.35;100167.84;5095279;28;43221;-84
2024/02/02 13:48:16;;;;;;;7.30;1.93;;;;;;;16.28;40.58;100154.03;5094864;28;41486;-88
2024/02/02 13:50:51;;;;;;;4.30;2.00;;;;;;;16.07;40.70;100154.44;5077811;28;39596;-81
2024/02/02 13:53:22;;;;;;;2.33;1.60;;;;;;;15.89;41.07;100163.66;5091771;28;42731;-81
2024/02/02 13:55:52;;;;;;;4.00;2.00;;;;;;;15.71;41.70;100151.44;5080370;27;43026;-87
2024/02/02 13:58:40;;;;;;;3.37;1.50;;;;;;;15.57;41.98;100151.47;5098064;27;42274;-88
2024/02/02 14:01:16;;;;;;;5.40;1.83;;;;;;;15.32;42.22;100115.59;5113576;27;39303;-84
2024/02/02 14:03:45;;;;;;;3.27;1.67;;;;;;;15.37;42.28;100140.16;5098169;27;40843;-84
2024/02/02 14:06:15;;;;;;;4.83;1.60;;;;;;;15.08;42.01;100109.09;5076866;28;41527;-85
2024/02/02 14:08:43;;;;;;;3.90;1.53;;;;;;;15.24;42.48;100133.88;5111768;28;42640;-86
2024/02/02 14:11:20;;;;;;;3.07;1.43;;;;;;;15.15;42.20;100137.09;5079213;27;41273;-84
2024/02/02 14:13:48;;;;;;;2.83;1.20;;;;;;;15.04;42.93;100118.22;5114784;27;42332;-80
2024/02/02 14:16:17;;;;;;;2.90;1.80;;;;;;;15.16;43.24;100133.50;5097455;27;42165;-86
2024/02/02 14:18:59;;;;;;;4.37;1.67;;;;;;;15.20;43.21;100129.69;5098091;27;41582;-86
2024/02/02 14:21:47;;;;;;;2.70;1.40;;;;;;;14.98;42.91;100100.78;5096520;27;39814;-88
2024/02/02 14:24:15;;;;;;;3.30;1.97;;;;;;;14.86;42.77;100089.97;5098033;27;41369;-87
2024/02/02 14:26:50;;;;;;;3.47;1.70;;;;;;;15.06;43.23;100121.66;5114536;27;42139;-86
2024/02/02 14:29:18;;;;;;;2.93;1.73;;;;;;;15.09;43.41;100118.78;5097447;27;41113;-93
2024/02/02 14:31:46;;;;;;;4.03;1.47;;;;;;;15.23;43.59;100121.47;5114155;27;39052;-84
2024/02/02 14:34:14;;;;;;;2.50;1.40;;;;;;;15.11;43.31;100090.22;5097475;27;40396;-86
2024/02/02 14:36:44;;;;;;;2.80;1.50;;;;;;;15.23;42.93;100109.94;5097539;27;43754;-86
2024/02/02 14:39:22;;;;;;;5.53;1.80;;;;;;;15.15;42.79;100091.75;5076820;28;40862;-85
2024/02/02 14:41:49;;;;;;;1.73;1.50;;;;;;;15.37;42.97;100117.94;5077308;28;39947;-86
2024/02/02 14:44:37;;;;;;;3.70;1.77;;;;;;;15.33;43.07;100095.91;5097097;27;42311;-87
2024/02/02 14:47:16;;;;;;;2.93;1.33;;;;;;;15.42;43.18;100087.38;5115259;27;43774;-86
2024/02/02 14:49:44;;;;;;;3.57;1.60;;;;;;;15.63;43.16;100095.00;5114910;27;41186;-87
2024/02/02 14:52:13;;;;;;;4.63;1.57;;;;;;;15.71;42.85;100103.38;5097482;27;38971;-82
2024/02/02 14:54:41;;;;;;;2.97;1.43;;;;;;;15.68;42.13;100111.59;5113797;27;43176;-83
2024/02/02 14:57:09;;;;;;;5.63;1.53;;;;;;;15.48;42.28;100102.13;5097242;27;42128;-87
2024/02/02 14:59:41;;;;;;;4.67;1.50;;;;;;;15.28;43.10;100098.03;5098985;27;40886;-84
2024/02/02 15:02:09;;;;;;;2.83;1.70;;;;;;;15.20;43.76;100126.16;5117426;27;40437;-84
2024/02/02 15:04:37;;;;;;;3.63;1.60;;;;;;;15.03;44.01;100114.69;5117099;27;43380;-81
2024/02/02 15:07:05;;;;;;;2.70;1.67;;;;;;;14.69;43.94;100101.69;5118890;27;43044;-84
2024/02/02 15:10:07;;;;;;;2.70;1.57;;;;;;;14.47;44.22;100088.75;5099799;27;41709;-84
2024/02/02 15:12:36;;;;;;;4.37;1.67;;;;;;;14.33;44.72;100099.34;5101218;27;39504;-84
2024/02/02 15:15:05;;;;;;;1.73;1.20;;;;;;;14.20;45.14;100091.19;5095542;28;40713;-81
2024/02/02 15:17:33;;;;;;;3.20;1.37;;;;;;;13.90;44.98;100064.50;5111750;27;42819;-85
2024/02/02 15:20:06;;;;;;;2.57;1.60;;;;;;;13.88;45.49;100082.34;5099222;27;41886;-86
2024/02/02 15:23:13;;;;;;;5.27;1.67;;;;;;;13.47;46.24;100047.44;5117132;27;39870;-87
2024/02/02 15:25:43;;;;;;;3.30;1.63;;;;;;;13.51;46.94;100069.38;5116531;27;42449;-83
2024/02/02 15:28:16;;;;;;;4.67;1.77;;;;;;;13.21;47.09;100022.25;5117079;27;43389;-85
2024/02/02 15:30:45;;;;;;;4.23;1.83;;;;;;;13.18;47.31;100042.81;5087146;27;41198;-84
2024/02/02 15:33:13;;;;;;;3.00;1.43;;;;;;;12.82;47.57;100022.56;5116398;27;39907;-86
2024/02/02 15:35:41;;;;;;;2.90;1.30;;;;;;;12.93;48.19;100048.56;5105274;27;41125;-87
2024/02/02 15:38:09;;;;;;;3.80;1.90;;;;;;;12.71;48.24;100029.38;5103409;27;41676;-86
2024/02/02 15:40:39;;;;;;;3.07;1.53;;;;;;;12.53;48.45;100015.25;5098915;27;41736;-86
2024/02/02 15:43:09;;;;;;;2.87;1.50;;;;;;;12.37;48.72;100023.13;5099746;27;40168;-86
2024/02/02 15:45:37;;;;;;;2.93;1.77;;;;;;;12.30;49.36;100045.66;5099546;27;41992;-85
2024/02/02 15:48:06;;;;;;;2.77;1.80;;;;;;;12.24;49.37;100056.56;5099580;27;42240;-84
2024/02/02 15:50:33;;;;;;;5.23;1.50;;;;;;;12.00;50.14;100036.53;5098673;27;41207;-88
2024/02/02 15:53:01;;;;;;;3.80;1.67;;;;;;;12.00;50.22;100047.16;5099605;27;38903;-84
2024/02/02 15:55:30;;;;;;;2.07;1.53;;;;;;;11.79;50.78;100038.47;5098829;27;42223;-88
2024/02/02 15:57:58;;;;;;;1.87;1.63;;;;;;;11.65;51.14;100031.13;5101762;27;44053;-84
2024/02/02 16:00:27;;;;;;;3.23;1.63;;;;;;;11.57;51.55;100027.16;5099147;27;41138;-85
2024/02/02 16:02:55;;;;;;;4.67;1.77;;;;;;;11.55;51.81;100045.78;5108925;27;39098;-86
2024/02/02 16:05:22;;;;;;;5.03;1.80;;;;;;;11.44;52.48;100040.13;5116694;27;41776;-82
2024/02/02 16:07:50;;;;;;;3.10;1.50;;;;;;;11.24;52.55;100029.59;5122464;27;42005;-81
2024/02/02 16:10:18;;;;;;;4.50;1.50;;;;;;;11.10;53.06;100022.28;5115458;27;42470;-84
2024/02/02 16:12:45;;;;;;;2.40;1.70;;;;;;;11.13;53.29;100033.59;5098463;27;41485;-83
2024/02/02 16:15:13;;;;;;;3.30;1.83;;;;;;;10.97;53.27;100011.38;5118211;27;42720;-86
2024/02/02 16:17:46;;;;;;;3.60;2.07;;;;;;;10.89;54.17;100013.50;5082556;27;41898;-83
2024/02/02 16:20:13;;;;;;;3.03;1.57;;;;;;;10.71;54.51;99998.44;5114578;27;41498;-83
2024/02/02 16:22:42;;;;;;;2.73;1.60;;;;;;;10.72;55.04;100013.41;5098071;27;40409;-84
2024/02/02 16:25:11;;;;;;;5.90;2.30;;;;;;;10.63;54.75;100016.47;5116253;27;42958;-84
2024/02/02 16:27:39;;;;;;;3.73;1.80;;;;;;;10.64;55.25;100034.06;5102031;27;42974;-85
2024/02/02 16:30:09;;;;;;;2.23;2.03;;;;;;;10.63;55.74;100037.69;5098941;27;41020;-82
2024/02/02 16:32:37;;;;;;;2.60;1.57;;;;;;;10.56;56.12;100026.47;5133494;27;41359;-84
2024/02/02 16:35:07;;;;;;;2.97;1.80;;;;;;;10.49;56.94;100013.56;5133988;27;42940;-81
2024/02/02 16:37:38;;;;;;;3.40;1.47;;;;;;;10.36;57.13;99997.34;5112667;27;43330;-85
2024/02/02 16:40:08;;;;;;;2.60;1.50;;;;;;;10.27;58.22;99985.34;5082901;27;41594;-85
2024/02/02 16:42:36;;;;;;;2.30;1.57;;;;;;;10.26;58.47;99986.28;5093998;27;40250;-84
2024/02/02 16:45:04;;;;;;;1.83;1.40;;;;;;;10.22;59.18;99970.63;5087306;28;40949;-85
2024/02/02 16:47:33;;;;;;;3.70;1.70;;;;;;;10.07;60.26;99958.84;5093957;27;42547;-83
2024/02/02 16:50:00;;;;;;;3.93;1.77;;;;;;;10.16;60.56;99976.97;5114663;27;42083;-84
2024/02/02 16:52:30;;;;;;;3.43;1.60;;;;;;;10.15;60.86;99977.91;5124454;27;40291;-84
2024/02/02 16:54:57;;;;;;;2.47;1.57;;;;;;;10.16;60.84;99978.78;5099429;27;41133;-86
2024/02/02 16:57:25;;;;;;;3.70;1.67;;;;;;;9.90;61.07;99940.19;5093367;27;45156;-84
2024/02/02 16:59:55;;;;;;;3.47;1.80;;;;;;;10.12;62.63;99983.34;5096657;27;41012;-86
2024/02/02 17:02:23;;;;;;;2.07;1.60;;;;;;;9.98;63.18;99969.84;5087059;27;39041;-82
2024/02/02 17:04:51;;;;;;;2.87;1.80;;;;;;;10.07;62.90;99993.25;5115560;27;42438;-86
2024/02/02 17:07:18;;;;;;;2.87;1.80;;;;;;;10.00;62.90;99994.47;5098222;27;41673;-86
2024/02/02 17:09:47;;;;;;;4.20;1.90;;;;;;;10.00;63.34;99983.88;5097145;27;42335;-84
2024/02/02 17:12:17;;;;;;;2.40;1.80;;;;;;;10.06;62.91;99989.75;5093511;27;39177;-83
2024/02/02 17:14:45;;;;;;;1.93;1.60;;;;;;;9.84;63.69;99956.31;5098138;27;41541;-84
2024/02/02 17:17:12;;;;;;;2.73;1.60;;;;;;;9.91;63.90;99976.31;5108570;27;42778;-85
2024/02/02 17:19:42;;;;;;;2.33;1.80;;;;;;;9.88;65.63;99985.25;5115450;27;43008;-85
2024/02/02 17:22:10;;;;;;;1.80;1.70;;;;;;;9.73;65.66;99959.44;5098926;27;38849;-84
2024/02/02 17:24:37;;;;;;;4.47;2.10;;;;;;;9.70;65.99;99959.53;5098327;27;41834;-85
2024/02/02 17:27:07;;;;;;;3.07;2.00;;;;;;;9.64;66.31;99960.66;5097777;27;41488;-84
2024/02/02 17:29:35;;;;;;;3.13;2.07;;;;;;;9.61;67.27;99955.50;5111327;27;42022;-86
2024/02/02 17:32:06;;;;;;;2.10;1.90;;;;;;;9.43;67.35;99924.50;5107130;27;40047;-87
2024/02/02 17:34:54;;;;;;;3.37;2.40;;;;;;;9.47;67.45;99936.69;5100570;27;42381;-87
2024/02/02 17:37:22;;;;;;;2.30;1.83;;;;;;;9.50;67.39;99949.78;5077862;28;42025;-87
2024/02/02 17:39:49;;;;;;;3.10;2.27;;;;;;;9.56;68.09;99967.19;5084068;27;42460;-87
2024/02/02 17:42:24;;;;;;;2.77;1.90;;;;;;;9.40;68.17;99951.06;5098220;27;38948;-87
2024/02/02 17:44:52;;;;;;;3.00;2.27;;;;;;;9.44;68.77;99957.97;5098721;27;41121;-87
2024/02/02 17:47:21;;;;;;;3.80;2.07;;;;;;;9.46;68.38;99956.13;5115823;27;42813;-87
2024/02/02 17:49:49;;;;;;;3.30;2.20;;;;;;;9.53;69.28;99954.94;5097114;27;41836;-87
2024/02/02 17:52:17;;;;;;;2.73;2.30;;;;;;;9.16;68.89;99904.47;5098554;27;40310;-87
2024/02/02 17:54:45;;;;;;;2.57;2.37;;;;;;;9.49;68.94;99940.13;5098087;27;40712;-88
2024/02/02 17:57:13;;;;;;;2.67;2.37;;;;;;;9.46;68.37;99923.53;5098326;27;42145;-87
2024/02/02 17:59:44;;;;;;;2.63;2.17;;;;;;;9.68;67.96;99945.50;5097852;27;42901;-89
2024/02/02 18:02:12;;;;;;;3.77;1.97;;;;;;;9.66;68.68;99947.34;5098016;27;39032;-86
2024/02/02 18:04:40;;;;;;;3.90;2.13;;;;;;;9.57;68.61;99929.22;5098100;27;42076;-87
2024/02/02 18:07:08;;;;;;;4.83;2.77;;;;;;;9.49;67.99;99929.56;5115485;27;43774;-86
2024/02/02 18:09:38;;;;;;;3.17;2.17;;;;;;;9.42;68.67;99930.72;5115430;27;42645;-88
2024/02/02 18:12:06;;;;;;;2.30;2.10;;;;;;;9.43;69.02;99950.94;5081936;27;38967;-87
2024/02/02 18:14:35;;;;;;;3.03;2.20;;;;;;;9.19;69.49;99904.34;5097579;27;40318;-86
2024/02/02 18:17:05;;;;;;;3.47;2.80;;;;;;;9.27;69.57;99939.28;5101993;27;44821;-86
2024/02/02 18:19:34;;;;;;;3.63;2.67;;;;;;;9.26;69.46;99937.56;5115295;27;41120;-88
2024/02/02 18:22:03;;;;;;;3.40;2.30;;;;;;;9.29;70.01;99948.00;5081685;27;39015;-87
2024/02/02 18:24:32;;;;;;;3.13;2.30;;;;;;;9.17;69.96;99922.91;5106460;27;40847;-88
2024/02/02 18:27:00;;;;;;;3.13;2.57;;;;;;;9.16;70.36;99941.47;5097953;27;41964;-88
2024/02/02 18:29:29;;;;;;;3.77;2.47;;;;;;;9.04;70.04;99923.44;5097680;27;41085;-87
2024/02/02 18:31:57;;;;;;;3.27;2.40;;;;;;;9.22;70.26;99968.53;5097458;27;39267;-87
2024/02/02 18:34:26;;;;;;;3.13;2.50;;;;;;;9.09;70.58;99945.28;5098067;27;40597;-87
2024/02/02 18:36:55;;;;;;;2.67;2.43;;;;;;;9.16;70.54;99970.53;5097777;27;42592;-88
2024/02/02 18:39:22;;;;;;;2.83;2.40;;;;;;;9.03;71.20;99951.66;5097341;27;42296;-89
2024/02/02 18:41:50;;;;;;;3.00;2.53;;;;;;;9.02;71.15;99954.38;5097307;27;39114;-87
2024/02/02 18:44:18;;;;;;;2.87;2.20;;;;;;;8.96;70.77;99945.75;5097687;27;40850;-87
2024/02/02 18:46:46;;;;;;;2.70;2.30;;;;;;;8.95;71.30;99938.75;5097381;27;41388;-89
2024/02/02 18:49:14;;;;;;;4.87;2.70;;;;;;;8.97;71.65;99944.84;5102424;27;40917;-90
2024/02/02 18:51:44;;;;;;;2.87;2.57;;;;;;;9.05;71.55;99948.97;5100196;27;40100;-88
2024/02/02 18:54:13;;;;;;;3.10;2.70;;;;;;;8.95;71.98;99932.59;5100062;27;43389;-87
2024/02/02 18:56:42;;;;;;;3.23;2.60;;;;;;;8.94;71.43;99930.88;5113828;27;41759;-85
2024/02/02 18:59:10;;;;;;;2.53;2.33;;;;;;;8.95;72.00;99936.09;5133008;27;43217;-86
2024/02/02 19:01:39;;;;;;;4.97;2.70;;;;;;;8.87;71.55;99929.41;5104140;27;41244;-88
2024/02/02 19:04:08;;;;;;;3.20;2.63;;;;;;;8.88;71.75;99926.72;5100880;27;40378;-86
2024/02/02 19:06:38;;;;;;;2.17;2.03;;;;;;;8.81;72.12;99919.94;5100756;27;41905;-86
2024/02/02 19:09:08;;;;;;;3.20;2.47;;;;;;;8.55;72.08;99881.31;5100743;27;41245;-89
2024/02/02 19:11:36;;;;;;;3.07;2.43;;;;;;;8.95;72.63;99943.19;5100566;27;40345;-86
2024/02/02 19:14:11;;;;;;;3.97;2.67;;;;;;;8.90;72.27;99924.84;5084363;27;41755;-86
2024/02/02 19:16:40;;;;;;;4.23;2.53;;;;;;;8.44;72.16;99845.66;5099570;27;42182;-86
2024/02/02 19:19:10;;;;;;;2.83;2.43;;;;;;;8.44;72.53;99835.09;5087946;28;40919;-88
2024/02/02 19:21:39;;;;;;;4.07;2.83;;;;;;;8.81;73.25;99898.78;5113817;27;39003;-90
2024/02/02 19:24:10;;;;;;;3.87;2.57;;;;;;;8.67;73.38;99887.91;5100703;27;40690;-89
2024/02/02 19:26:38;;;;;;;2.47;2.10;;;;;;;8.55;73.92;99869.88;5114006;27;42908;-86
2024/02/02 19:29:06;;;;;;;2.50;2.30;;;;;;;8.43;73.68;99849.22;5100823;27;43110;-89
2024/02/02 19:31:38;;;;;;;3.30;2.70;;;;;;;8.51;74.12;99885.00;5117567;27;40114;-85
2024/02/02 19:34:06;;;;;;;3.30;2.90;;;;;;;8.77;74.54;99928.03;5115022;27;40674;-88
2024/02/02 19:36:34;;;;;;;2.83;2.37;;;;;;;8.62;74.82;99898.66;5100257;27;41791;-88
2024/02/02 19:39:03;;;;;;;3.60;2.70;;;;;;;8.78;74.70;99932.41;5100626;27;41303;-87
2024/02/02 19:41:33;;;;;;;2.60;2.40;;;;;;;8.70;75.17;99916.84;5100250;27;38820;-86
2024/02/02 19:44:01;;;;;;;2.77;2.53;;;;;;;8.71;74.89;99918.56;5100546;27;42419;-88
2024/02/02 19:46:30;;;;;;;4.57;3.00;;;;;;;8.77;75.57;99923.63;5099657;27;42294;-87
2024/02/02 19:48:59;;;;;;;3.70;2.20;;;;;;;8.77;75.84;99912.19;5100438;27;41782;-87
2024/02/02 19:51:29;;;;;;;2.90;2.60;;;;;;;8.73;76.33;99900.88;5100451;27;39153;-88
2024/02/02 19:53:56;;;;;;;3.13;2.50;;;;;;;8.74;76.71;99907.03;5099888;27;43238;-87
2024/02/02 19:56:24;;;;;;;5.03;2.50;;;;;;;8.86;76.56;99917.97;5099519;27;43445;-92
